Time;durP1;ratioP1;P1;durP2;ratioP2;P2;SDS_P1;SDS_P2;PMS_P1;PMS_P2;Temp;Humidity;BMP_temperature;BMP_pressure;BME280_temperature;BME280_humidity;BME280_pressure;Samples;Min_cycle;Max_cycle;Signal;HPM_P1;HPM_P2
2024/03/25 00:01:31;;;;;;;2.90;1.00;;;6.50;91.70;;;;;;5062343;28;20450;-66
2024/03/25 00:03:57;;;;;;;1.10;0.80;;;6.50;91.70;;;;;;5068281;28;20104;-67
2024/03/25 00:06:22;;;;;;;3.25;0.90;;;6.50;91.70;;;;;;5071870;28;20120;-67
2024/03/25 00:08:48;;;;;;;2.60;0.90;;;6.50;91.70;;;;;;5072870;28;20055;-66
2024/03/25 00:11:13;;;;;;;2.58;1.00;;;6.50;91.70;;;;;;5071704;28;20028;-65
2024/03/25 00:13:39;;;;;;;1.85;0.95;;;6.50;91.70;;;;;;5074729;28;20039;-67
2024/03/25 00:16:06;;;;;;;3.92;0.85;;;6.50;91.70;;;;;;5070488;28;20039;-67
2024/03/25 00:18:31;;;;;;;2.47;1.00;;;6.50;91.70;;;;;;5064551;28;20028;-64
2024/03/25 00:20:57;;;;;;;2.35;0.80;;;6.50;91.70;;;;;;5067980;28;20471;-66
2024/03/25 00:23:23;;;;;;;1.98;0.90;;;6.50;91.70;;;;;;5072824;28;20032;-67
2024/03/25 00:25:48;;;;;;;2.42;0.98;;;6.50;91.70;;;;;;5073651;28;20020;-67
2024/03/25 00:28:14;;;;;;;1.38;0.82;;;6.40;91.70;;;;;;5069158;28;20030;-67
2024/03/25 00:30:40;;;;;;;1.55;0.90;;;6.50;91.70;;;;;;5070597;28;20063;-66
2024/03/25 00:33:06;;;;;;;2.08;1.10;;;6.40;92.00;;;;;;5070040;28;20097;-67
2024/03/25 00:35:32;;;;;;;3.30;0.80;;;6.40;91.70;;;;;;5067280;28;20572;-67
2024/03/25 00:37:58;;;;;;;3.53;1.25;;;6.40;91.70;;;;;;5066238;28;20028;-66
2024/03/25 00:40:24;;;;;;;2.65;1.00;;;6.40;91.70;;;;;;5072182;28;20029;-65
2024/03/25 00:42:50;;;;;;;2.13;1.05;;;6.40;91.70;;;;;;5069808;28;20040;-67
2024/03/25 00:45:16;;;;;;;3.78;1.30;;;6.40;91.70;;;;;;5073126;28;20024;-66
2024/03/25 00:47:41;;;;;;;2.58;1.15;;;6.40;91.70;;;;;;5079416;28;20111;-66
2024/03/25 00:50:08;;;;;;;1.52;0.85;;;6.50;91.70;;;;;;5068704;28;20020;-67
2024/03/25 00:52:35;;;;;;;2.85;0.93;;;6.50;91.60;;;;;;5069741;28;20447;-66
2024/03/25 00:55:00;;;;;;;1.92;0.80;;;6.50;91.60;;;;;;5067964;28;20024;-66
2024/03/25 00:57:26;;;;;;;1.98;1.00;;;6.50;91.60;;;;;;5071315;28;20364;-65
2024/03/25 00:59:52;;;;;;;2.75;1.00;;;6.50;91.60;;;;;;5072950;28;20028;-66
2024/03/25 01:02:17;;;;;;;4.53;1.10;;;6.50;91.60;;;;;;5067719;28;20028;-67
2024/03/25 01:04:43;;;;;;;1.63;1.00;;;6.50;91.60;;;;;;5068635;28;20108;-66
2024/03/25 01:07:09;;;;;;;0.82;0.73;;;6.50;91.70;;;;;;5076708;28;20103;-65
2024/03/25 01:09:34;;;;;;;3.13;0.90;;;6.40;91.70;;;;;;5067532;28;20078;-66
2024/03/25 01:12:00;;;;;;;1.50;0.88;;;6.40;91.70;;;;;;5069203;28;20032;-66
2024/03/25 01:14:26;;;;;;;3.30;1.20;;;6.40;91.70;;;;;;5067169;28;20172;-66
2024/03/25 01:16:52;;;;;;;2.00;0.90;;;6.30;91.70;;;;;;5067966;28;20036;-67
2024/03/25 01:19:18;;;;;;;3.30;1.00;;;6.30;91.70;;;;;;5075614;28;20039;-67
2024/03/25 01:21:44;;;;;;;2.00;0.98;;;6.30;91.80;;;;;;5070560;28;20128;-64
2024/03/25 01:24:10;;;;;;;4.40;0.95;;;6.30;91.80;;;;;;5069506;28;20108;-64
2024/03/25 01:26:36;;;;;;;3.72;1.10;;;6.30;91.80;;;;;;5068889;28;20047;-67
2024/03/25 01:29:02;;;;;;;2.85;0.88;;;6.30;91.80;;;;;;5070915;28;20021;-67
2024/03/25 01:31:27;;;;;;;1.85;0.70;;;6.20;91.80;;;;;;5070198;28;20390;-67
2024/03/25 01:33:53;;;;;;;1.35;0.90;;;6.20;91.80;;;;;;5071348;28;21312;-66
2024/03/25 01:36:18;;;;;;;3.25;0.98;;;6.20;91.80;;;;;;5070295;28;20029;-67
2024/03/25 01:38:44;;;;;;;2.55;0.90;;;6.20;91.80;;;;;;5072911;28;20025;-66
2024/03/25 01:41:11;;;;;;;3.53;0.98;;;6.20;91.80;;;;;;5066658;28;20079;-66
2024/03/25 01:43:37;;;;;;;3.75;0.90;;;6.20;91.90;;;;;;5071079;28;20021;-65
2024/03/25 01:46:02;;;;;;;2.75;0.98;;;6.10;91.80;;;;;;5071633;28;20027;-65
2024/03/25 01:48:28;;;;;;;3.60;1.00;;;6.10;91.80;;;;;;5072674;28;20017;-66
2024/03/25 01:50:55;;;;;;;2.08;1.27;;;6.10;91.90;;;;;;5073529;28;20483;-66
2024/03/25 01:53:20;;;;;;;2.70;1.08;;;6.10;91.90;;;;;;5071072;28;20028;-66
2024/03/25 01:55:48;;;;;;;2.38;1.08;;;6.10;92.20;;;;;;5074537;28;20158;-65
2024/03/25 01:58:14;;;;;;;2.33;0.90;;;6.10;91.90;;;;;;5076824;28;20496;-65
2024/03/25 02:00:40;;;;;;;2.30;1.00;;;6.10;91.90;;;;;;5068314;28;20025;-66
2024/03/25 02:03:06;;;;;;;2.55;1.10;;;6.10;91.90;;;;;;5071078;28;20033;-63
2024/03/25 02:05:34;;;;;;;2.75;0.90;;;6.10;91.90;;;;;;5073125;28;20020;-66
2024/03/25 02:08:01;;;;;;;2.17;1.02;;;6.10;91.90;;;;;;5076336;28;20501;-66
2024/03/25 02:10:27;;;;;;;1.60;0.90;;;6.10;91.80;;;;;;5077369;28;20024;-67
2024/03/25 02:12:53;;;;;;;3.78;0.90;;;6.10;91.80;;;;;;5077206;28;20497;-67
2024/03/25 02:15:19;;;;;;;2.40;0.90;;;6.10;91.90;;;;;;5075581;28;20093;-66
2024/03/25 02:17:44;;;;;;;5.47;1.10;;;6.10;91.90;;;;;;5076998;28;20531;-66
2024/03/25 02:20:11;;;;;;;0.90;0.80;;;6.10;91.90;;;;;;5071756;28;20032;-64
2024/03/25 02:22:37;;;;;;;2.58;0.80;;;6.10;91.80;;;;;;5071353;28;20033;-66
2024/03/25 02:25:08;;;;;;;6.97;1.15;;;6.10;91.80;;;;;;5076349;28;20039;-65
2024/03/25 02:27:35;;;;;;;2.60;1.15;;;6.10;91.90;;;;;;5078416;28;20024;-66
2024/03/25 02:30:07;;;;;;;3.50;0.98;;;6.00;91.90;;;;;;5076287;28;20467;-66
2024/03/25 02:32:33;;;;;;;3.03;1.20;;;6.00;91.90;;;;;;5075474;28;20047;-64
2024/03/25 02:34:59;;;;;;;4.57;1.10;;;6.00;91.90;;;;;;5069766;28;20016;-66
2024/03/25 02:37:25;;;;;;;2.95;1.05;;;6.00;91.90;;;;;;5075221;28;20746;-65
2024/03/25 02:39:53;;;;;;;3.25;1.10;;;6.00;91.90;;;;;;5075159;28;20039;-65
2024/03/25 02:42:19;;;;;;;2.42;0.90;;;6.00;91.90;;;;;;5074870;28;20029;-65
2024/03/25 02:44:45;;;;;;;1.88;0.88;;;6.00;92.00;;;;;;5077528;28;20104;-65
2024/03/25 02:47:11;;;;;;;2.28;1.08;;;6.00;92.00;;;;;;5074581;28;20020;-65
2024/03/25 02:49:37;;;;;;;4.43;1.20;;;6.00;92.00;;;;;;5069511;28;20017;-64
2024/03/25 02:52:03;;;;;;;2.47;1.00;;;6.10;92.00;;;;;;5071908;28;20460;-65
2024/03/25 02:54:28;;;;;;;1.52;0.80;;;6.10;92.00;;;;;;5072324;28;20029;-65
2024/03/25 02:56:54;;;;;;;3.20;1.17;;;6.10;91.90;;;;;;5075127;28;20359;-65
2024/03/25 02:59:19;;;;;;;3.92;1.20;;;6.20;91.90;;;;;;5071036;28;20035;-66
2024/03/25 03:01:45;;;;;;;2.25;1.00;;;6.20;91.80;;;;;;5077536;28;20051;-65
2024/03/25 03:04:10;;;;;;;2.15;1.05;;;6.30;91.80;;;;;;5070343;28;20141;-66
2024/03/25 03:06:36;;;;;;;1.65;0.80;;;6.30;91.70;;;;;;5070143;28;20009;-66
2024/03/25 03:09:01;;;;;;;2.85;1.10;;;6.40;91.70;;;;;;5074072;28;20403;-66
2024/03/25 03:11:27;;;;;;;1.67;1.00;;;6.40;91.70;;;;;;5070343;28;20393;-65
2024/03/25 03:13:52;;;;;;;4.60;1.08;;;6.50;91.60;;;;;;5078141;28;20506;-65
2024/03/25 03:16:18;;;;;;;2.03;1.00;;;6.50;91.60;;;;;;5073910;28;20024;-66
2024/03/25 03:18:43;;;;;;;3.72;1.00;;;6.50;91.60;;;;;;5074441;28;20037;-65
2024/03/25 03:21:09;;;;;;;4.35;1.17;;;6.50;91.50;;;;;;5072885;28;20436;-65
2024/03/25 03:23:34;;;;;;;5.43;1.17;;;6.50;91.50;;;;;;5074048;28;20530;-67
2024/03/25 03:26:00;;;;;;;2.80;0.98;;;6.50;91.60;;;;;;5073995;28;20044;-67
2024/03/25 03:28:28;;;;;;;3.30;1.00;;;6.50;91.80;;;;;;5075549;28;20029;-66
2024/03/25 03:30:53;;;;;;;2.22;1.10;;;6.50;91.50;;;;;;5074627;28;20036;-65
2024/03/25 03:33:19;;;;;;;1.23;0.80;;;6.50;91.50;;;;;;5078886;28;20055;-66
2024/03/25 03:35:44;;;;;;;4.45;1.08;;;6.50;91.50;;;;;;5079850;28;20025;-66
2024/03/25 03:38:10;;;;;;;2.35;0.90;;;6.50;91.50;;;;;;5073482;28;20498;-66
2024/03/25 03:40:35;;;;;;;1.88;0.90;;;6.50;91.50;;;;;;5071479;28;20103;-67
2024/03/25 03:43:01;;;;;;;3.17;0.80;;;6.50;91.50;;;;;;5078245;28;20052;-66
2024/03/25 03:45:32;;;;;;;4.28;1.00;;;6.50;91.50;;;;;;5070241;28;20059;-66
2024/03/25 03:47:57;;;;;;;2.97;0.90;;;6.50;91.50;;;;;;5070836;28;20031;-65
2024/03/25 03:50:23;;;;;;;2.28;1.00;;;6.50;91.60;;;;;;5072642;28;20025;-66
2024/03/25 03:52:48;;;;;;;2.78;1.10;;;6.50;91.60;;;;;;5069300;28;20020;-67
2024/03/25 03:55:14;;;;;;;3.47;1.05;;;6.50;91.60;;;;;;5074168;28;20414;-66
2024/03/25 03:57:39;;;;;;;1.50;0.90;;;6.50;91.60;;;;;;5070596;28;20514;-67
2024/03/25 04:00:06;;;;;;;1.23;0.82;;;6.40;91.50;;;;;;5074475;28;20486;-66
2024/03/25 04:02:31;;;;;;;1.15;0.95;;;6.40;91.50;;;;;;5068506;28;20021;-66
2024/03/25 04:04:57;;;;;;;2.97;0.98;;;6.40;91.60;;;;;;5071923;28;20093;-65
2024/03/25 04:07:28;;;;;;;3.17;0.82;;;6.30;91.60;;;;;;5074698;28;20402;-66
2024/03/25 04:09:54;;;;;;;1.15;0.80;;;6.30;91.70;;;;;;5075630;28;20016;-65
2024/03/25 04:12:20;;;;;;;1.65;0.95;;;6.30;91.70;;;;;;5069476;28;20033;-66
2024/03/25 04:14:54;;;;;;;2.80;0.82;;;6.20;91.70;;;;;;5076542;28;20025;-66
2024/03/25 04:17:21;;;;;;;1.95;0.90;;;6.10;91.80;;;;;;5067780;28;20390;-65
2024/03/25 04:19:49;;;;;;;3.63;1.10;;;6.10;91.80;;;;;;5069839;28;20024;-67
2024/03/25 04:22:14;;;;;;;1.35;0.90;;;6.10;91.90;;;;;;5065553;28;20111;-67
2024/03/25 04:24:40;;;;;;;2.13;1.02;;;6.00;91.80;;;;;;5075673;28;20105;-65
2024/03/25 04:27:06;;;;;;;2.03;0.95;;;6.00;91.90;;;;;;5070790;28;20032;-66
2024/03/25 04:29:31;;;;;;;2.90;1.00;;;6.00;91.90;;;;;;5070113;28;20036;-67
2024/03/25 04:31:57;;;;;;;2.75;1.00;;;5.90;91.90;;;;;;5079084;28;20028;-66
2024/03/25 04:34:23;;;;;;;4.25;1.20;;;5.90;91.90;;;;;;5074791;28;20024;-66
2024/03/25 04:36:49;;;;;;;3.90;1.10;;;5.80;91.90;;;;;;5069368;28;20028;-65
2024/03/25 04:39:14;;;;;;;5.97;1.35;;;5.80;91.90;;;;;;5068767;28;20689;-66
2024/03/25 04:41:40;;;;;;;3.28;1.00;;;5.80;92.00;;;;;;5067105;28;20037;-67
2024/03/25 04:44:06;;;;;;;4.35;1.20;;;5.70;92.00;;;;;;5070163;28;20092;-66
2024/03/25 04:46:31;;;;;;;3.92;1.52;;;5.70;92.00;;;;;;5070164;28;20111;-66
2024/03/25 04:48:57;;;;;;;2.47;0.90;;;5.70;92.00;;;;;;5071680;28;20020;-65
2024/03/25 04:51:23;;;;;;;3.20;1.20;;;5.70;92.00;;;;;;5079628;28;20074;-66
2024/03/25 04:53:48;;;;;;;4.38;1.50;;;5.70;92.00;;;;;;5074733;28;20037;-66
2024/03/25 04:56:14;;;;;;;2.17;1.08;;;5.60;92.00;;;;;;5076146;28;20052;-65
2024/03/25 04:58:39;;;;;;;3.08;1.10;;;5.60;92.00;;;;;;5073523;28;20032;-67
2024/03/25 05:01:05;;;;;;;1.48;1.10;;;5.50;92.00;;;;;;5076817;28;20067;-66
2024/03/25 05:03:30;;;;;;;2.60;1.10;;;5.50;92.00;;;;;;5075026;28;20020;-66
2024/03/25 05:05:56;;;;;;;3.38;1.60;;;5.60;92.10;;;;;;5074485;28;20048;-65
2024/03/25 05:08:22;;;;;;;4.03;1.52;;;5.50;92.10;;;;;;5070849;28;21597;-66
2024/03/25 05:10:47;;;;;;;2.88;1.42;;;5.50;92.00;;;;;;5069995;28;20063;-66
2024/03/25 05:13:13;;;;;;;6.03;2.00;;;5.50;92.00;;;;;;5073461;28;20099;-67
2024/03/25 05:15:38;;;;;;;4.90;2.45;;;5.40;92.00;;;;;;5072020;28;20044;-66
2024/03/25 05:18:04;;;;;;;3.75;1.92;;;5.40;92.00;;;;;;5070107;28;20517;-66
2024/03/25 05:20:30;;;;;;;4.18;1.63;;;5.40;92.00;;;;;;5072611;28;20414;-66
2024/03/25 05:22:56;;;;;;;5.15;2.00;;;5.40;92.00;;;;;;5103459;28;20157;-64
2024/03/25 05:25:28;;;;;;;4.35;1.90;;;5.40;92.00;;;;;;5072233;28;20052;-65
2024/03/25 05:27:54;;;;;;;3.67;1.65;;;5.40;92.00;;;;;;5075805;28;20078;-66
2024/03/25 05:30:19;;;;;;;6.38;1.98;;;5.40;91.90;;;;;;5072525;28;20024;-65
2024/03/25 05:32:45;;;;;;;4.50;1.90;;;5.40;91.90;;;;;;5072086;28;20766;-66
2024/03/25 05:35:10;;;;;;;4.03;1.70;;;5.30;91.90;;;;;;5073861;28;20491;-67
2024/03/25 05:37:37;;;;;;;4.25;1.80;;;5.40;91.90;;;;;;5067085;28;20548;-66
2024/03/25 05:40:03;;;;;;;5.63;1.80;;;5.30;91.90;;;;;;5071929;28;20103;-66
2024/03/25 05:42:28;;;;;;;4.28;1.83;;;5.30;91.90;;;;;;5069485;28;20116;-66
2024/03/25 05:44:54;;;;;;;4.30;1.67;;;5.30;91.90;;;;;;5069250;28;20020;-64
2024/03/25 05:47:19;;;;;;;3.90;1.52;;;5.40;92.00;;;;;;5078115;28;20030;-67
2024/03/25 05:49:47;;;;;;;5.65;1.95;;;5.40;92.00;;;;;;5074007;28;20480;-66
2024/03/25 05:52:12;;;;;;;4.32;2.10;;;5.40;92.00;;;;;;5071030;28;20029;-65
2024/03/25 05:54:38;;;;;;;3.75;1.80;;;5.40;91.90;;;;;;5069900;28;20450;-66
2024/03/25 05:57:04;;;;;;;5.05;1.92;;;5.50;91.90;;;;;;5070465;28;20064;-67
2024/03/25 05:59:29;;;;;;;5.07;2.00;;;5.50;91.90;;;;;;5076350;28;20027;-66
2024/03/25 06:01:55;;;;;;;5.20;1.63;;;5.50;91.90;;;;;;5073967;28;20088;-66
2024/03/25 06:04:20;;;;;;;3.35;1.60;;;5.60;92.00;;;;;;5075941;28;20088;-64
2024/03/25 06:06:46;;;;;;;3.35;1.50;;;5.70;92.20;;;;;;5077635;28;20481;-66
2024/03/25 06:09:11;;;;;;;1.42;1.20;;;6.00;92.30;;;;;;5074327;28;20428;-66
2024/03/25 06:11:37;;;;;;;2.53;1.55;;;6.40;92.30;;;;;;5076215;28;20031;-66
2024/03/25 06:14:02;;;;;;;3.40;1.50;;;7.20;91.50;;;;;;5071180;28;23844;-65
2024/03/25 06:16:28;;;;;;;3.40;1.30;;;8.20;90.30;;;;;;5078689;28;20012;-67
2024/03/25 06:18:53;;;;;;;4.40;1.67;;;9.00;88.20;;;;;;5080017;28;20037;-67
2024/03/25 06:21:19;;;;;;;4.82;1.70;;;9.40;85.70;;;;;;5073046;28;20119;-66
2024/03/25 06:23:44;;;;;;;4.47;1.80;;;9.10;85.00;;;;;;5074475;28;20438;-65
2024/03/25 06:26:10;;;;;;;5.65;2.00;;;8.60;85.70;;;;;;5079099;28;20395;-66
2024/03/25 06:28:35;;;;;;;3.65;1.60;;;8.30;86.80;;;;;;5071433;28;20391;-66
2024/03/25 06:36:29;;;;;;;3.38;1.50;;;8.00;88.10;;;;;;5073482;28;20090;-66
2024/03/25 06:38:55;;;;;;;3.42;1.60;;;8.00;88.30;;;;;;5072721;28;20036;-64
2024/03/25 06:41:20;;;;;;;4.18;2.05;;;8.00;88.40;;;;;;5075143;28;20032;-66
2024/03/25 06:43:46;;;;;;;6.15;2.10;;;7.80;88.30;;;;;;5067736;28;20020;-66
2024/03/25 06:46:12;;;;;;;6.53;2.03;;;7.70;88.60;;;;;;5070607;28;20020;-67
2024/03/25 06:48:37;;;;;;;3.92;1.90;;;7.70;88.80;;;;;;5077971;28;20043;-66
2024/03/25 06:51:03;;;;;;;8.20;2.40;;;7.70;88.90;;;;;;5069948;28;20024;-63
2024/03/25 06:53:29;;;;;;;9.55;2.53;;;7.60;88.90;;;;;;5074696;28;20028;-66
2024/03/25 06:55:58;;;;;;;6.88;2.42;;;7.60;89.10;;;;;;5075175;28;20494;-66
2024/03/25 06:58:25;;;;;;;8.57;2.90;;;7.60;89.00;;;;;;5070214;28;20129;-66
2024/03/25 07:00:53;;;;;;;7.80;2.58;;;7.50;89.00;;;;;;5071900;28;20099;-66
2024/03/25 07:03:20;;;;;;;8.18;2.90;;;7.40;89.10;;;;;;5071956;28;20506;-66
2024/03/25 07:05:46;;;;;;;5.70;2.30;;;7.50;89.20;;;;;;5071866;28;20111;-65
2024/03/25 07:08:12;;;;;;;9.27;2.67;;;7.40;89.30;;;;;;5076986;28;20253;-64
2024/03/25 07:10:38;;;;;;;8.65;2.78;;;7.40;89.40;;;;;;5067852;28;20019;-65
2024/03/25 07:13:05;;;;;;;8.90;2.90;;;7.40;89.40;;;;;;5070143;28;20115;-65
2024/03/25 07:15:31;;;;;;;7.07;2.58;;;7.30;89.60;;;;;;5069479;28;20020;-66
2024/03/25 07:17:57;;;;;;;5.82;2.20;;;7.40;89.80;;;;;;5071034;28;20085;-64
2024/03/25 07:20:23;;;;;;;8.73;2.63;;;7.50;89.70;;;;;;5066895;28;20481;-65
2024/03/25 07:22:48;;;;;;;5.18;2.20;;;7.50;89.70;;;;;;5070099;28;20151;-66
2024/03/25 07:25:14;;;;;;;5.13;1.92;;;7.70;89.80;;;;;;5071160;28;20031;-66
2024/03/25 07:27:40;;;;;;;6.30;2.00;;;7.70;89.60;;;;;;5067887;28;20024;-67
2024/03/25 07:30:07;;;;;;;6.72;2.30;;;7.80;89.40;;;;;;5071572;28;20040;-67
2024/03/25 07:32:34;;;;;;;8.57;2.20;;;7.80;89.30;;;;;;5072522;28;20024;-67
2024/03/25 07:34:59;;;;;;;7.10;2.45;;;7.80;90.00;;;;;;5069013;28;20031;-66
2024/03/25 07:37:25;;;;;;;5.15;1.75;;;7.90;89.60;;;;;;5073429;28;20036;-65
2024/03/25 07:39:51;;;;;;;4.95;1.70;;;8.00;89.60;;;;;;5072171;28;20029;-65
2024/03/25 07:42:16;;;;;;;5.10;1.70;;;8.20;89.40;;;;;;5072547;28;20062;-64
2024/03/25 07:44:42;;;;;;;7.07;2.35;;;8.40;89.10;;;;;;5072750;28;20032;-65
2024/03/25 07:47:08;;;;;;;4.97;1.85;;;8.40;89.00;;;;;;5071356;28;20036;-66
2024/03/25 07:49:33;;;;;;;5.28;2.10;;;8.40;89.00;;;;;;5069035;28;20051;-67
2024/03/25 07:52:00;;;;;;;8.07;2.53;;;8.40;89.00;;;;;;5071920;28;20501;-66
2024/03/25 07:54:26;;;;;;;9.13;2.05;;;8.40;88.90;;;;;;5071563;28;20067;-65
2024/03/25 07:56:52;;;;;;;9.52;2.67;;;8.30;88.90;;;;;;5071956;28;20035;-66
2024/03/25 07:59:18;;;;;;;6.82;2.45;;;8.30;89.70;;;;;;5067244;28;20039;-66
2024/03/25 08:01:44;;;;;;;5.03;1.90;;;8.40;89.00;;;;;;5064431;28;20525;-66
2024/03/25 08:04:09;;;;;;;3.65;1.40;;;8.40;89.10;;;;;;5066165;28;20012;-67
2024/03/25 08:06:35;;;;;;;3.33;1.40;;;8.60;89.10;;;;;;5069314;28;20020;-66
2024/03/25 08:09:00;;;;;;;3.78;1.60;;;8.70;88.90;;;;;;5070568;28;20028;-64
2024/03/25 08:11:27;;;;;;;4.03;1.75;;;8.80;88.80;;;;;;5070071;28;20033;-66
2024/03/25 08:13:52;;;;;;;8.35;1.90;;;8.90;88.80;;;;;;5066851;28;20025;-65
2024/03/25 08:16:19;;;;;;;4.00;1.70;;;9.00;88.70;;;;;;5068729;28;20099;-63
2024/03/25 08:18:45;;;;;;;11.63;2.58;;;9.00;88.60;;;;;;5070496;28;20043;-64
2024/03/25 08:21:11;;;;;;;4.45;1.90;;;9.00;88.40;;;;;;5058106;28;20122;-66
2024/03/25 08:23:36;;;;;;;4.00;1.52;;;9.00;88.60;;;;;;5062486;28;20024;-66
2024/03/25 08:26:02;;;;;;;6.25;2.13;;;9.10;88.70;;;;;;5065460;28;20032;-66
2024/03/25 08:28:27;;;;;;;4.85;1.70;;;9.20;88.50;;;;;;5063240;28;20070;-64
2024/03/25 08:30:54;;;;;;;9.43;2.72;;;9.20;88.50;;;;;;5064323;28;20548;-65
2024/03/25 08:33:20;;;;;;;7.70;2.40;;;9.10;88.10;;;;;;5067357;28;20020;-64
2024/03/25 08:35:46;;;;;;;5.93;2.20;;;9.10;88.10;;;;;;5064857;28;20499;-66
2024/03/25 08:38:11;;;;;;;5.68;2.25;;;9.10;88.20;;;;;;5063522;28;20027;-66
2024/03/25 08:40:37;;;;;;;8.25;2.53;;;9.20;88.30;;;;;;5063663;28;20115;-65
2024/03/25 08:43:02;;;;;;;6.38;2.85;;;9.10;88.10;;;;;;5066192;28;20040;-66
2024/03/25 08:45:28;;;;;;;6.90;2.22;;;9.10;88.00;;;;;;5063877;28;20024;-65
2024/03/25 08:47:53;;;;;;;6.35;2.20;;;9.10;88.10;;;;;;5065487;28;20040;-66
2024/03/25 08:50:19;;;;;;;3.88;1.60;;;9.20;88.20;;;;;;5064485;28;20021;-65
2024/03/25 08:52:45;;;;;;;4.90;1.30;;;9.30;88.10;;;;;;5065031;28;20028;-65
2024/03/25 08:55:11;;;;;;;2.13;1.13;;;9.40;87.90;;;;;;5062991;28;20037;-66
2024/03/25 08:57:37;;;;;;;8.60;2.00;;;9.60;87.90;;;;;;5059544;28;20430;-65
2024/03/25 09:00:04;;;;;;;5.20;1.63;;;9.60;87.30;;;;;;5062048;28;20123;-66
2024/03/25 09:02:29;;;;;;;5.18;1.95;;;9.60;86.70;;;;;;5064129;28;20107;-65
2024/03/25 09:04:56;;;;;;;5.80;1.65;;;9.50;86.40;;;;;;5067574;28;20107;-66
2024/03/25 09:07:21;;;;;;;6.95;1.63;;;9.60;86.40;;;;;;5058844;28;20439;-65
2024/03/25 09:12:31;;;;;;;4.13;1.25;;;9.80;86.20;;;;;;5065424;28;20673;-66
2024/03/25 09:14:56;;;;;;;4.97;1.60;;;9.80;86.60;;;;;;5065481;28;20032;-66
2024/03/25 09:17:24;;;;;;;4.53;2.00;;;9.90;85.70;;;;;;5065205;28;20028;-66
2024/03/25 09:19:50;;;;;;;3.78;1.40;;;10.00;85.40;;;;;;5066780;28;20073;-64
2024/03/25 09:22:15;;;;;;;3.92;1.60;;;10.00;85.30;;;;;;5065597;28;20053;-66
2024/03/25 09:24:41;;;;;;;5.13;1.60;;;10.00;84.80;;;;;;5064729;28;20044;-66
2024/03/25 09:27:06;;;;;;;8.40;2.05;;;10.10;84.80;;;;;;5062996;28;20031;-66
2024/03/25 09:29:32;;;;;;;7.38;2.10;;;10.30;84.00;;;;;;5065444;28;20029;-64
2024/03/25 09:31:58;;;;;;;7.45;2.33;;;10.20;83.60;;;;;;5067951;28;20024;-64
2024/03/25 09:34:24;;;;;;;5.07;1.50;;;10.30;83.40;;;;;;5066162;28;20072;-67
2024/03/25 09:36:49;;;;;;;3.90;1.52;;;10.40;83.10;;;;;;5064654;28;20032;-67
2024/03/25 09:39:15;;;;;;;3.53;1.40;;;10.50;83.20;;;;;;5065761;28;20028;-66
2024/03/25 09:41:43;;;;;;;8.63;2.55;;;10.60;83.40;;;;;;5066384;28;20036;-65
2024/03/25 09:44:09;;;;;;;7.05;2.05;;;10.60;82.70;;;;;;5065036;28;20029;-66
2024/03/25 09:46:36;;;;;;;5.00;2.00;;;10.70;82.80;;;;;;5067384;28;20025;-66
2024/03/25 09:49:05;;;;;;;2.97;1.30;;;10.70;82.70;;;;;;5065670;28;20024;-67
2024/03/25 09:51:31;;;;;;;2.22;1.10;;;10.80;82.90;;;;;;5062896;28;20036;-65
2024/03/25 09:53:57;;;;;;;5.97;1.55;;;10.90;83.00;;;;;;5062395;28;20029;-66
2024/03/25 09:56:22;;;;;;;3.65;1.50;;;11.10;82.60;;;;;;5068612;28;20039;-67
2024/03/25 09:58:48;;;;;;;4.10;1.42;;;11.10;82.00;;;;;;5062543;28;20028;-66
2024/03/25 10:01:14;;;;;;;4.30;1.55;;;11.10;81.40;;;;;;5062069;28;20024;-66
2024/03/25 10:03:40;;;;;;;5.15;1.92;;;11.10;81.40;;;;;;5063479;28;20032;-65
2024/03/25 10:06:08;;;;;;;5.22;1.75;;;11.00;80.60;;;;;;5067873;28;20387;-66
2024/03/25 10:08:33;;;;;;;2.28;1.25;;;11.00;80.90;;;;;;5068921;28;20048;-67
2024/03/25 10:11:02;;;;;;;5.55;1.88;;;11.10;80.70;;;;;;5070351;28;20363;-65
2024/03/25 10:13:27;;;;;;;5.18;1.90;;;11.00;79.20;;;;;;5062405;28;20091;-66
2024/03/25 10:15:55;;;;;;;7.70;2.10;;;11.10;79.70;;;;;;5065267;28;20107;-65
2024/03/25 10:18:21;;;;;;;3.47;1.50;;;11.10;78.40;;;;;;5064579;28;20048;-66
2024/03/25 10:20:53;;;;;;;5.05;1.70;;;11.20;78.80;;;;;;5064408;28;20020;-67
2024/03/25 10:23:25;;;;;;;4.32;1.50;;;11.40;78.90;;;;;;5064467;28;20020;-66
2024/03/25 10:25:55;;;;;;;4.05;1.50;;;11.40;78.00;;;;;;5066223;28;20124;-66
2024/03/25 10:28:21;;;;;;;4.40;1.83;;;11.50;78.60;;;;;;5066916;28;20017;-66
2024/03/25 10:30:47;;;;;;;4.97;1.65;;;11.60;77.90;;;;;;5062616;28;20035;-67
2024/03/25 10:33:12;;;;;;;3.03;1.30;;;11.70;77.80;;;;;;5070681;28;20043;-66
2024/03/25 10:35:39;;;;;;;5.10;1.75;;;11.80;78.10;;;;;;5069532;28;20036;-67
2024/03/25 10:38:06;;;;;;;4.65;2.17;;;11.80;77.40;;;;;;5066884;28;20088;-66
2024/03/25 10:40:35;;;;;;;4.30;1.60;;;11.90;77.00;;;;;;5068677;28;20497;-66
2024/03/25 10:43:03;;;;;;;4.80;1.65;;;11.90;76.50;;;;;;5072871;28;20040;-67
2024/03/25 10:45:30;;;;;;;6.07;1.60;;;11.90;76.20;;;;;;5071466;28;20667;-67
2024/03/25 10:48:13;;;;;;;5.90;1.60;;;11.90;76.20;;;;;;5071934;28;20027;-65
2024/03/25 10:50:40;;;;;;;5.15;1.40;;;12.00;76.80;;;;;;5072393;28;20035;-66
2024/03/25 10:53:08;;;;;;;2.95;1.00;;;12.10;76.50;;;;;;5071433;28;20081;-66
2024/03/25 10:55:36;;;;;;;5.00;1.35;;;12.30;76.60;;;;;;5066684;28;20021;-66
2024/03/25 10:58:03;;;;;;;4.63;1.50;;;12.20;76.20;;;;;;5067421;28;20020;-65
2024/03/25 11:00:29;;;;;;;2.78;1.30;;;12.20;74.70;;;;;;5067801;28;20542;-67
2024/03/25 11:02:56;;;;;;;4.25;1.40;;;12.30;76.20;;;;;;5069398;28;20518;-65
2024/03/25 11:05:22;;;;;;;4.30;1.30;;;12.40;76.00;;;;;;5068052;28;20074;-67
2024/03/25 11:07:48;;;;;;;1.50;1.02;;;12.50;75.60;;;;;;5072352;28;20036;-67
2024/03/25 11:10:15;;;;;;;2.95;1.85;;;12.60;76.30;;;;;;5067696;28;20025;-67
2024/03/25 11:12:42;;;;;;;2.03;0.90;;;12.70;75.30;;;;;;5066301;28;20025;-67
2024/03/25 11:15:08;;;;;;;2.30;0.90;;;12.80;75.50;;;;;;5069755;28;20478;-66
2024/03/25 11:17:34;;;;;;;3.67;1.45;;;12.90;75.40;;;;;;5071305;28;20021;-67
2024/03/25 11:20:10;;;;;;;3.03;1.15;;;12.90;74.20;;;;;;5072602;28;20033;-67
2024/03/25 11:22:36;;;;;;;2.05;0.90;;;12.90;74.70;;;;;;5068983;28;20067;-67
2024/03/25 11:25:09;;;;;;;3.97;1.10;;;13.10;74.80;;;;;;5067239;28;20047;-66
2024/03/25 11:27:36;;;;;;;5.07;1.60;;;13.20;74.60;;;;;;5065624;28;20020;-66
2024/03/25 11:30:06;;;;;;;3.25;1.40;;;13.20;73.50;;;;;;5064454;28;20360;-66
2024/03/25 11:32:52;;;;;;;3.20;1.35;;;13.10;72.90;;;;;;5072447;28;20394;-67
2024/03/25 11:35:18;;;;;;;2.00;1.00;;;13.00;72.90;;;;;;5065506;28;20017;-67
2024/03/25 11:37:44;;;;;;;2.25;1.00;;;13.00;73.30;;;;;;5069224;28;20029;-67
2024/03/25 11:40:12;;;;;;;1.77;1.02;;;13.10;73.50;;;;;;5069698;28;20055;-67
2024/03/25 11:42:45;;;;;;;3.42;1.23;;;13.10;73.20;;;;;;5067913;28;20024;-66
2024/03/25 11:45:18;;;;;;;3.63;1.20;;;13.10;73.40;;;;;;5068906;28;20024;-67
2024/03/25 11:47:45;;;;;;;5.88;1.70;;;13.20;72.80;;;;;;5073277;28;20020;-66
2024/03/25 11:50:16;;;;;;;5.22;1.48;;;13.10;71.70;;;;;;5070701;28;20513;-65
2024/03/25 11:52:42;;;;;;;3.72;1.15;;;13.20;71.90;;;;;;5078152;28;20028;-67
2024/03/25 11:55:09;;;;;;;2.38;1.20;;;13.40;71.80;;;;;;5068926;28;20024;-67
2024/03/25 11:57:36;;;;;;;2.05;1.10;;;13.40;71.70;;;;;;5078265;28;20475;-66
2024/03/25 12:00:05;;;;;;;3.78;1.85;;;13.40;69.20;;;;;;5072578;28;20064;-66
2024/03/25 12:02:31;;;;;;;3.60;1.67;;;13.20;69.20;;;;;;5077381;28;20497;-67
2024/03/25 12:04:57;;;;;;;2.45;1.30;;;13.20;70.60;;;;;;5076606;28;20028;-66
2024/03/25 12:07:22;;;;;;;5.35;1.65;;;13.30;70.80;;;;;;5077068;28;20103;-67
2024/03/25 12:12:32;;;;;;;2.38;1.20;;;13.20;70.10;;;;;;5068442;28;20118;-67
2024/03/25 12:14:58;;;;;;;2.85;1.27;;;13.20;70.60;;;;;;5071806;28;20032;-66
2024/03/25 12:17:24;;;;;;;3.95;1.50;;;13.40;70.80;;;;;;5070491;28;20089;-66
2024/03/25 12:20:04;;;;;;;4.43;1.20;;;13.50;70.10;;;;;;5082425;28;20037;-67
2024/03/25 12:22:31;;;;;;;5.25;1.70;;;13.50;69.10;;;;;;5069382;28;20509;-66
2024/03/25 12:25:01;;;;;;;5.03;1.70;;;13.50;69.60;;;;;;5077771;28;20479;-67
2024/03/25 12:27:28;;;;;;;4.20;1.60;;;13.60;69.30;;;;;;5074958;28;20453;-68
2024/03/25 12:30:19;;;;;;;3.72;1.40;;;13.70;69.10;;;;;;5066982;28;20017;-67
2024/03/25 12:32:45;;;;;;;4.13;1.50;;;13.90;69.10;;;;;;5073750;28;20068;-66
2024/03/25 12:35:12;;;;;;;3.83;1.50;;;13.60;67.40;;;;;;5076306;28;20429;-67
2024/03/25 12:37:40;;;;;;;2.33;1.48;;;13.50;68.00;;;;;;5067875;28;20081;-67
2024/03/25 12:40:07;;;;;;;6.55;2.25;;;13.40;68.50;;;;;;5080248;28;20397;-68
2024/03/25 12:42:33;;;;;;;5.78;2.10;;;13.30;67.90;;;;;;5064253;28;20036;-68
2024/03/25 12:44:59;;;;;;;3.40;1.65;;;13.10;67.70;;;;;;5077267;28;20016;-67
2024/03/25 12:47:25;;;;;;;4.25;1.50;;;13.00;68.70;;;;;;5065309;28;20034;-67
2024/03/25 12:49:51;;;;;;;2.95;1.38;;;12.90;68.80;;;;;;5085072;28;20383;-67
2024/03/25 12:52:16;;;;;;;3.85;1.50;;;13.00;69.40;;;;;;5072930;28;20343;-67
2024/03/25 12:54:42;;;;;;;2.38;1.20;;;13.20;69.60;;;;;;5074078;28;20029;-67
2024/03/25 12:57:08;;;;;;;3.08;1.52;;;13.50;69.00;;;;;;5084271;28;20020;-67
2024/03/25 12:59:33;;;;;;;2.47;1.20;;;13.50;67.80;;;;;;5068261;28;20388;-66